HISTORICAL SENSOR DATA

Sensor Data Report

DB LIVE
CURRENT TIME--:--:--
DEVICE NETWORK Gateway Status
13 ESP · realtime ~1s · history 60s
Weather WS-MOD-01
ONLINE
Actuator ACT-MOD-01
OFFLINE
Mainboard L3 MB-L3-01
ONLINE
Mainboard L5 MB-L5-01
ONLINE
Remote AC AC-REMOTE-01
ONLINE
PZEM L3-01 PWR-L3-01
OFFLINE
PZEM L3-02 PWR-L3-02
OFFLINE
PZEM L3-03 PWR-L3-03
OFFLINE
PZEM L3-04 PWR-L3-04
OFFLINE
PZEM L5-01 PWR-L5-01
ONLINE
PZEM L5-02 PWR-L5-02
ONLINE
PZEM L5-03 PWR-L5-03
OFFLINE
PZEM L5-04 PWR-L5-04
OFFLINE
REPORT FILTER

Periode & Sensor

DATABASE HISTORY
RESET
QUICK RANGE Hari ini 7 hari 30 hari
PERIODE09 Aug 2026sampai 07 Sep 2026
TOTAL DATA95,967sensor readings
MINIMUM-0.50sesuai filter
AVERAGE73.27sesuai filter
MAXIMUM32,564.20sesuai filter
REPORT RESULT

Data Sensor

09/08/2026 — 07/09/2026 EXPORT CSV
NOTANGGALWAKTUDEVICECHANNELSENSORVALUEUNIT
801 07/09/2026 06:45:00 WS-MOD-01Weather Station Module WS-TEMP Suhu Udara 19.30 °C
802 07/09/2026 06:45:00 MB-L3-01Mainboard Lantai 3 L3-LUX-06 Illuminance / LUX 6 770.60 lux
803 07/09/2026 06:45:00 MB-L5-01Mainboard Lantai 5 L5-LUX-04 Illuminance / LUX 4 292.90 lux
804 07/09/2026 06:45:00 MB-L5-01Mainboard Lantai 5 L5-AI-04 Analog Input 4 3.05 V
805 07/09/2026 06:45:00 MB-L3-01Mainboard Lantai 3 L3-LUX-04 Illuminance / LUX 4 286.00 lux
806 07/09/2026 06:45:00 WS-MOD-01Weather Station Module WS-WIND Kecepatan Angin 5.35 m/s
807 07/09/2026 06:45:00 MB-L5-01Mainboard Lantai 5 L5-LUX-01 Illuminance / LUX 1 326.10 lux
808 07/09/2026 06:45:00 MB-L3-01Mainboard Lantai 3 L3-RAD-01 Radiation 1 2.00 W/m²
809 07/09/2026 06:45:00 MB-L3-01Mainboard Lantai 3 L3-SHT-03-T SHT20 3 Temperature 28.30 °C
810 07/09/2026 06:45:00 MB-L3-01Mainboard Lantai 3 L3-LUX-05 Illuminance / LUX 5 2,205.50 lux
811 07/09/2026 06:45:00 MB-L5-01Mainboard Lantai 5 L5-SHT-03-RH SHT20 3 Humidity 46.40 %RH
812 07/09/2026 06:45:00 AC-REMOTE-01Remote AC AC-SETPOINT AC Set Temperature 23.00 °C
813 07/09/2026 06:45:00 PWR-L5-01Power Meter L5 PZEM 01 PZEM-L5-01-VOLT PZEM L5-01 Voltage 225.10 V
814 07/09/2026 06:45:00 MB-L5-01Mainboard Lantai 5 L5-RAD-02 Radiation 2 3.00 W/m²
815 07/09/2026 06:45:00 MB-L5-01Mainboard Lantai 5 L5-AI-03 Analog Input 3 3.05 V
816 07/09/2026 06:45:00 MB-L5-01Mainboard Lantai 5 L5-SHT-01-RH SHT20 1 Humidity 46.60 %RH
817 07/09/2026 06:45:00 MB-L3-01Mainboard Lantai 3 L3-AI-04 Analog Input 4 3.12 V
818 07/09/2026 06:45:00 MB-L5-01Mainboard Lantai 5 L5-LUX-02 Illuminance / LUX 2 1,448.30 lux
819 07/09/2026 06:45:00 PWR-L5-01Power Meter L5 PZEM 01 PZEM-L5-01-ENERGY PZEM L5-01 Energy 0.13 kWh
820 07/09/2026 06:45:00 MB-L3-01Mainboard Lantai 3 L3-LUX-02 Illuminance / LUX 2 433.10 lux
821 07/09/2026 06:45:00 MB-L5-01Mainboard Lantai 5 L5-SHT-02-RH SHT20 2 Humidity 46.00 %RH
822 07/09/2026 06:45:00 AC-REMOTE-01Remote AC AC-MODE AC Operating Mode 1.00 code
823 07/09/2026 06:45:00 MB-L3-01Mainboard Lantai 3 L3-LUX-03 Illuminance / LUX 3 494.20 lux
824 07/09/2026 06:45:00 MB-L3-01Mainboard Lantai 3 L3-AI-01 Analog Input 1 3.12 V
825 07/09/2026 06:45:00 MB-L5-01Mainboard Lantai 5 L5-HFT-02 Heat Flow Temperature 2 23.20 °C
826 07/09/2026 06:45:00 MB-L3-01Mainboard Lantai 3 L3-SHT-02-RH SHT20 2 Humidity 46.10 %RH
827 07/09/2026 06:45:00 MB-L3-01Mainboard Lantai 3 L3-SHT-01-RH SHT20 1 Humidity 46.20 %RH
828 07/09/2026 06:45:00 MB-L5-01Mainboard Lantai 5 L5-LUX-03 Illuminance / LUX 3 464.90 lux
829 07/09/2026 06:45:00 MB-L3-01Mainboard Lantai 3 L3-SHT-01-T SHT20 1 Temperature 28.30 °C
830 07/09/2026 06:45:00 MB-L5-01Mainboard Lantai 5 L5-AI-02 Analog Input 2 3.05 V
831 07/09/2026 06:45:00 MB-L3-01Mainboard Lantai 3 L3-AI-06 Analog Input 6 3.12 V
832 07/09/2026 06:45:00 PWR-L5-01Power Meter L5 PZEM 01 PZEM-L5-01-CURR PZEM L5-01 Current 0.11 A
833 07/09/2026 06:45:00 AC-REMOTE-01Remote AC AC-FAN AC Fan Speed 0.00 code
834 07/09/2026 06:45:00 MB-L5-01Mainboard Lantai 5 L5-HFT-01 Heat Flow Temperature 1 23.90 °C
835 07/09/2026 06:45:00 MB-L5-01Mainboard Lantai 5 L5-BGT-03 Black Globe Temperature 3 26.10 °C
836 07/09/2026 06:45:00 MB-L5-01Mainboard Lantai 5 L5-AI-01 Analog Input 1 3.05 V
837 07/09/2026 06:45:00 MB-L3-01Mainboard Lantai 3 L3-AI-03 Analog Input 3 3.12 V
838 07/09/2026 06:45:00 PWR-L5-02Power Meter L5 PZEM 02 PZEM-L5-02-PF PZEM L5-02 Power Factor 0.00
839 07/09/2026 06:45:00 PWR-L5-01Power Meter L5 PZEM 01 PZEM-L5-01-FREQ PZEM L5-01 Frequency 50.00 Hz
840 07/09/2026 06:44:00 PWR-L5-01Power Meter L5 PZEM 01 PZEM-L5-01-POWER PZEM L5-01 Active Power 10.40 W
841 07/09/2026 06:44:00 AC-REMOTE-01Remote AC AC-POWER AC Power State 1.00 state
842 07/09/2026 06:44:00 WS-MOD-01Weather Station Module WS-PRES Tekanan Udara 911.00 hPa
843 07/09/2026 06:44:00 PWR-L5-02Power Meter L5 PZEM 02 PZEM-L5-02-CURR PZEM L5-02 Current 0.00 A
844 07/09/2026 06:44:00 MB-L5-01Mainboard Lantai 5 L5-SHT-01-T SHT20 1 Temperature 28.10 °C
845 07/09/2026 06:44:00 MB-L5-01Mainboard Lantai 5 L5-BGT-01 Black Globe Temperature 1 26.40 °C
846 07/09/2026 06:44:00 PWR-L5-02Power Meter L5 PZEM 02 PZEM-L5-02-VOLT PZEM L5-02 Voltage 225.10 V
847 07/09/2026 06:44:00 WS-MOD-01Weather Station Module WS-RH Kelembapan Udara 77.30 %RH
848 07/09/2026 06:44:00 MB-L3-01Mainboard Lantai 3 L3-AI-02 Analog Input 2 3.12 V
849 07/09/2026 06:44:00 MB-L5-01Mainboard Lantai 5 L5-ST-01 Surface Temperature 1 23.80 °C
850 07/09/2026 06:44:00 PWR-L5-01Power Meter L5 PZEM 01 PZEM-L5-01-PF PZEM L5-01 Power Factor 0.41
851 07/09/2026 06:44:00 WS-MOD-01Weather Station Module WS-TEMP Suhu Udara 19.20 °C
852 07/09/2026 06:44:00 MB-L3-01Mainboard Lantai 3 L3-LUX-06 Illuminance / LUX 6 755.10 lux
853 07/09/2026 06:44:00 MB-L5-01Mainboard Lantai 5 L5-LUX-05 Illuminance / LUX 5 928.10 lux
854 07/09/2026 06:44:00 MB-L5-01Mainboard Lantai 5 L5-LUX-04 Illuminance / LUX 4 286.90 lux
855 07/09/2026 06:44:00 MB-L5-01Mainboard Lantai 5 L5-AI-04 Analog Input 4 3.05 V
856 07/09/2026 06:44:00 MB-L3-01Mainboard Lantai 3 L3-LUX-04 Illuminance / LUX 4 279.20 lux
857 07/09/2026 06:44:00 WS-MOD-01Weather Station Module WS-WIND Kecepatan Angin 8.81 m/s
858 07/09/2026 06:44:00 MB-L5-01Mainboard Lantai 5 L5-LUX-01 Illuminance / LUX 1 319.50 lux
859 07/09/2026 06:44:00 MB-L3-01Mainboard Lantai 3 L3-RAD-01 Radiation 1 2.00 W/m²
860 07/09/2026 06:44:00 MB-L3-01Mainboard Lantai 3 L3-SHT-03-T SHT20 3 Temperature 28.30 °C
861 07/09/2026 06:44:00 MB-L3-01Mainboard Lantai 3 L3-LUX-05 Illuminance / LUX 5 2,117.10 lux
862 07/09/2026 06:44:00 MB-L5-01Mainboard Lantai 5 L5-SHT-03-RH SHT20 3 Humidity 46.40 %RH
863 07/09/2026 06:44:00 AC-REMOTE-01Remote AC AC-SETPOINT AC Set Temperature 23.00 °C
864 07/09/2026 06:44:00 PWR-L5-01Power Meter L5 PZEM 01 PZEM-L5-01-VOLT PZEM L5-01 Voltage 225.20 V
865 07/09/2026 06:44:00 MB-L5-01Mainboard Lantai 5 L5-RAD-02 Radiation 2 2.00 W/m²
866 07/09/2026 06:44:00 MB-L5-01Mainboard Lantai 5 L5-AI-03 Analog Input 3 3.05 V
867 07/09/2026 06:44:00 MB-L5-01Mainboard Lantai 5 L5-SHT-01-RH SHT20 1 Humidity 46.70 %RH
868 07/09/2026 06:44:00 MB-L3-01Mainboard Lantai 3 L3-AI-04 Analog Input 4 3.12 V
869 07/09/2026 06:44:00 MB-L5-01Mainboard Lantai 5 L5-LUX-02 Illuminance / LUX 2 1,417.20 lux
870 07/09/2026 06:44:00 PWR-L5-01Power Meter L5 PZEM 01 PZEM-L5-01-ENERGY PZEM L5-01 Energy 0.13 kWh
871 07/09/2026 06:44:00 MB-L3-01Mainboard Lantai 3 L3-LUX-02 Illuminance / LUX 2 423.20 lux
872 07/09/2026 06:44:00 MB-L5-01Mainboard Lantai 5 L5-SHT-02-RH SHT20 2 Humidity 46.00 %RH
873 07/09/2026 06:44:00 AC-REMOTE-01Remote AC AC-MODE AC Operating Mode 1.00 code
874 07/09/2026 06:44:00 MB-L3-01Mainboard Lantai 3 L3-LUX-03 Illuminance / LUX 3 483.00 lux
875 07/09/2026 06:44:00 MB-L3-01Mainboard Lantai 3 L3-AI-01 Analog Input 1 3.12 V
876 07/09/2026 06:44:00 MB-L5-01Mainboard Lantai 5 L5-HFT-02 Heat Flow Temperature 2 23.10 °C
877 07/09/2026 06:44:00 MB-L3-01Mainboard Lantai 3 L3-SHT-02-RH SHT20 2 Humidity 46.10 %RH
878 07/09/2026 06:44:00 MB-L3-01Mainboard Lantai 3 L3-SHT-01-RH SHT20 1 Humidity 46.20 %RH
879 07/09/2026 06:44:00 MB-L5-01Mainboard Lantai 5 L5-LUX-03 Illuminance / LUX 3 455.00 lux
880 07/09/2026 06:44:00 MB-L3-01Mainboard Lantai 3 L3-SHT-01-T SHT20 1 Temperature 28.20 °C
881 07/09/2026 06:44:00 MB-L5-01Mainboard Lantai 5 L5-AI-02 Analog Input 2 3.05 V
882 07/09/2026 06:44:00 MB-L3-01Mainboard Lantai 3 L3-AI-06 Analog Input 6 3.12 V
883 07/09/2026 06:44:00 PWR-L5-01Power Meter L5 PZEM 01 PZEM-L5-01-CURR PZEM L5-01 Current 0.11 A
884 07/09/2026 06:44:00 AC-REMOTE-01Remote AC AC-FAN AC Fan Speed 0.00 code
885 07/09/2026 06:44:00 MB-L5-01Mainboard Lantai 5 L5-HFT-01 Heat Flow Temperature 1 23.60 °C
886 07/09/2026 06:44:00 MB-L5-01Mainboard Lantai 5 L5-BGT-03 Black Globe Temperature 3 26.10 °C
887 07/09/2026 06:44:00 MB-L5-01Mainboard Lantai 5 L5-AI-01 Analog Input 1 3.05 V
888 07/09/2026 06:44:00 MB-L3-01Mainboard Lantai 3 L3-AI-03 Analog Input 3 3.12 V
889 07/09/2026 06:44:00 PWR-L5-02Power Meter L5 PZEM 02 PZEM-L5-02-PF PZEM L5-02 Power Factor 0.00
890 07/09/2026 06:44:00 PWR-L5-01Power Meter L5 PZEM 01 PZEM-L5-01-FREQ PZEM L5-01 Frequency 50.00 Hz
891 07/09/2026 06:44:00 MB-L5-01Mainboard Lantai 5 L5-AI-06 Analog Input 6 3.05 V
892 07/09/2026 06:44:00 MB-L5-01Mainboard Lantai 5 L5-LUX-06 Illuminance / LUX 6 458.40 lux
893 07/09/2026 06:44:00 MB-L5-01Mainboard Lantai 5 L5-SHT-03-T SHT20 3 Temperature 28.30 °C
894 07/09/2026 06:44:00 PWR-L5-02Power Meter L5 PZEM 02 PZEM-L5-02-FREQ PZEM L5-02 Frequency 50.00 Hz
895 07/09/2026 06:44:00 WS-MOD-01Weather Station Module WS-DIR Arah Angin 88.90 °
896 07/09/2026 06:44:00 MB-L5-01Mainboard Lantai 5 L5-ST-02 Surface Temperature 2 23.30 °C
897 07/09/2026 06:44:00 PWR-L5-02Power Meter L5 PZEM 02 PZEM-L5-02-ENERGY PZEM L5-02 Energy 0.04 kWh
898 07/09/2026 06:44:00 MB-L5-01Mainboard Lantai 5 L5-BGT-02 Black Globe Temperature 2 26.30 °C
899 07/09/2026 06:44:00 MB-L5-01Mainboard Lantai 5 L5-SHT-02-T SHT20 2 Temperature 28.30 °C
900 07/09/2026 06:44:00 MB-L3-01Mainboard Lantai 3 L3-LUX-01 Illuminance / LUX 1 278.50 lux
Menampilkan maksimal 100 data per halaman